This is the latest recevied weather packets stored in our database for station/object OH2CHY-10. If no packets are shown the sender has not sent any weather packets the latest 10 day(s).
| Time | Temp. | Humidity | Pressure | Rain* | Wind** | Luminosity | Snow |
|---|---|---|---|---|---|---|---|
| 1777604331 | 14.44° C | 57% | 1021.2 hPa | - | - | - | - |
| 1777603431 | 8.89° C | 72% | 1021.3 hPa | - | - | - | - |
| 1777602531 | 6.67° C | 73% | 1021.4 hPa | - | - | - | - |
| 1777601631 | 6.67° C | 73% | 1021.5 hPa | - | - | - | - |
| 1777600731 | 6.67° C | 72% | 1021.3 hPa | - | - | - | - |
| 1777599831 | 6.67° C | 72% | 1021.3 hPa | - | - | - | - |
| 1777598930 | 7.22° C | 71% | 1021.3 hPa | - | - | - | - |
| 1777598030 | 7.22° C | 71% | 1021.3 hPa | - | - | - | - |
| 1777597130 | 7.22° C | 69% | 1021.2 hPa | - | - | - | - |
| 1777596230 | 7.78° C | 71% | 1021.2 hPa | - | - | - | - |
| 1777595330 | 7.78° C | 71% | 1021.2 hPa | - | - | - | - |
| 1777594430 | 7.78° C | 71% | 1021.1 hPa | - | - | - | - |
| 1777593530 | 7.78° C | 69% | 1021.2 hPa | - | - | - | - |
| 1777592630 | 8.33° C | 68% | 1021.2 hPa | - | - | - | - |
| 1777591730 | 8.33° C | 67% | 1021.2 hPa | - | - | - | - |
| 1777590830 | 8.89° C | 68% | 1021.3 hPa | - | - | - | - |
| 1777589930 | 8.89° C | 67% | 1021.2 hPa | - | - | - | - |
| 1777589030 | 8.89° C | 67% | 1021.2 hPa | - | - | - | - |
| 1777588130 | 9.44° C | 66% | 1021.2 hPa | - | - | - | - |
| 1777587230 | 9.44° C | 65% | 1021.1 hPa | - | - | - | - |
| 1777586330 | 10° C | 63% | 1021 hPa | - | - | - | - |
| 1777585429 | 10° C | 61% | 1020.9 hPa | - | - | - | - |
| 1777584529 | 10.56° C | 60% | 1020.8 hPa | - | - | - | - |
| 1777583629 | 10.56° C | 60% | 1020.8 hPa | - | - | - | - |
| 1777582729 | 11.11° C | 58% | 1020.8 hPa | - | - | - | - |
* Rain since midnight (hover to see other rain measurements)
** Current wind speed in m/s (hover to see current wind gust speed)